sensor_id;sensor_type;location;lat;lon;timestamp;P1;durP1;ratioP1;P2;durP2;ratioP2
8058;SDS011;4072;42.668;23.396;2023-05-29T00:01:08;7.80;;;5.07;;
8058;SDS011;4072;42.668;23.396;2023-05-29T00:03:36;8.17;;;5.73;;
8058;SDS011;4072;42.668;23.396;2023-05-29T00:06:05;9.13;;;5.20;;
8058;SDS011;4072;42.668;23.396;2023-05-29T00:08:33;7.63;;;5.37;;
8058;SDS011;4072;42.668;23.396;2023-05-29T00:11:01;6.10;;;5.50;;
8058;SDS011;4072;42.668;23.396;2023-05-29T00:13:29;6.77;;;5.00;;
8058;SDS011;4072;42.668;23.396;2023-05-29T00:15:59;5.67;;;5.00;;
8058;SDS011;4072;42.668;23.396;2023-05-29T00:18:27;6.07;;;5.47;;
8058;SDS011;4072;42.668;23.396;2023-05-29T00:20:58;7.10;;;5.10;;
8058;SDS011;4072;42.668;23.396;2023-05-29T00:23:26;5.77;;;5.13;;
8058;SDS011;4072;42.668;23.396;2023-05-29T00:25:54;6.87;;;5.30;;
8058;SDS011;4072;42.668;23.396;2023-05-29T00:28:22;12.13;;;5.50;;
8058;SDS011;4072;42.668;23.396;2023-05-29T00:30:50;5.33;;;4.40;;
8058;SDS011;4072;42.668;23.396;2023-05-29T00:33:20;7.40;;;5.10;;
8058;SDS011;4072;42.668;23.396;2023-05-29T00:35:48;5.40;;;4.90;;
8058;SDS011;4072;42.668;23.396;2023-05-29T00:38:17;5.17;;;4.77;;
8058;SDS011;4072;42.668;23.396;2023-05-29T00:40:45;5.47;;;4.67;;
8058;SDS011;4072;42.668;23.396;2023-05-29T00:43:13;7.37;;;4.80;;
8058;SDS011;4072;42.668;23.396;2023-05-29T00:45:41;7.60;;;4.93;;
8058;SDS011;4072;42.668;23.396;2023-05-29T00:48:09;6.37;;;4.73;;
8058;SDS011;4072;42.668;23.396;2023-05-29T00:50:38;5.43;;;4.93;;
8058;SDS011;4072;42.668;23.396;2023-05-29T00:53:07;6.03;;;5.17;;
8058;SDS011;4072;42.668;23.396;2023-05-29T00:55:35;8.00;;;5.17;;
8058;SDS011;4072;42.668;23.396;2023-05-29T00:58:04;5.80;;;4.97;;
8058;SDS011;4072;42.668;23.396;2023-05-29T01:00:32;7.47;;;6.00;;
8058;SDS011;4072;42.668;23.396;2023-05-29T01:03:01;8.73;;;5.80;;
8058;SDS011;4072;42.668;23.396;2023-05-29T01:05:33;9.47;;;6.37;;
8058;SDS011;4072;42.668;23.396;2023-05-29T01:08:03;7.17;;;6.47;;
8058;SDS011;4072;42.668;23.396;2023-05-29T01:10:31;7.53;;;6.83;;
8058;SDS011;4072;42.668;23.396;2023-05-29T01:13:03;7.20;;;5.93;;
8058;SDS011;4072;42.668;23.396;2023-05-29T01:15:37;7.70;;;6.17;;
8058;SDS011;4072;42.668;23.396;2023-05-29T01:18:19;9.10;;;6.30;;
8058;SDS011;4072;42.668;23.396;2023-05-29T01:20:56;6.83;;;6.20;;
8058;SDS011;4072;42.668;23.396;2023-05-29T01:26:51;7.03;;;5.70;;
8058;SDS011;4072;42.668;23.396;2023-05-29T01:29:24;6.43;;;5.50;;
8058;SDS011;4072;42.668;23.396;2023-05-29T01:31:54;6.30;;;5.60;;
8058;SDS011;4072;42.668;23.396;2023-05-29T01:34:23;7.07;;;5.63;;
8058;SDS011;4072;42.668;23.396;2023-05-29T01:36:52;6.40;;;5.70;;
8058;SDS011;4072;42.668;23.396;2023-05-29T01:39:20;6.97;;;6.27;;
8058;SDS011;4072;42.668;23.396;2023-05-29T01:41:48;8.03;;;5.60;;
8058;SDS011;4072;42.668;23.396;2023-05-29T01:44:19;6.20;;;5.60;;
8058;SDS011;4072;42.668;23.396;2023-05-29T01:46:49;7.67;;;6.07;;
8058;SDS011;4072;42.668;23.396;2023-05-29T01:49:18;6.60;;;5.63;;
8058;SDS011;4072;42.668;23.396;2023-05-29T01:51:46;7.53;;;5.70;;
8058;SDS011;4072;42.668;23.396;2023-05-29T01:54:14;7.57;;;6.70;;
8058;SDS011;4072;42.668;23.396;2023-05-29T01:56:43;7.03;;;6.33;;
8058;SDS011;4072;42.668;23.396;2023-05-29T01:59:13;7.83;;;6.30;;
8058;SDS011;4072;42.668;23.396;2023-05-29T02:01:42;9.90;;;6.03;;
8058;SDS011;4072;42.668;23.396;2023-05-29T02:04:10;8.83;;;6.73;;
8058;SDS011;4072;42.668;23.396;2023-05-29T02:06:38;9.40;;;6.73;;
8058;SDS011;4072;42.668;23.396;2023-05-29T02:09:06;6.93;;;6.33;;
8058;SDS011;4072;42.668;23.396;2023-05-29T02:11:34;7.17;;;6.20;;
8058;SDS011;4072;42.668;23.396;2023-05-29T02:14:02;8.67;;;6.90;;
8058;SDS011;4072;42.668;23.396;2023-05-29T02:16:32;9.03;;;6.30;;
8058;SDS011;4072;42.668;23.396;2023-05-29T02:19:00;8.97;;;7.13;;
8058;SDS011;4072;42.668;23.396;2023-05-29T02:21:29;8.47;;;7.10;;
8058;SDS011;4072;42.668;23.396;2023-05-29T02:23:57;6.57;;;5.97;;
8058;SDS011;4072;42.668;23.396;2023-05-29T02:26:25;11.33;;;8.53;;
8058;SDS011;4072;42.668;23.396;2023-05-29T02:28:53;6.83;;;6.00;;
8058;SDS011;4072;42.668;23.396;2023-05-29T02:31:22;8.10;;;6.30;;
8058;SDS011;4072;42.668;23.396;2023-05-29T02:33:51;8.17;;;6.53;;
8058;SDS011;4072;42.668;23.396;2023-05-29T02:36:19;9.07;;;7.47;;
8058;SDS011;4072;42.668;23.396;2023-05-29T02:38:47;7.30;;;6.43;;
8058;SDS011;4072;42.668;23.396;2023-05-29T02:41:17;6.83;;;6.03;;
8058;SDS011;4072;42.668;23.396;2023-05-29T02:43:45;8.40;;;6.87;;
8058;SDS011;4072;42.668;23.396;2023-05-29T02:46:13;8.13;;;7.33;;
8058;SDS011;4072;42.668;23.396;2023-05-29T02:48:41;8.90;;;6.63;;
8058;SDS011;4072;42.668;23.396;2023-05-29T02:51:11;11.10;;;7.13;;
8058;SDS011;4072;42.668;23.396;2023-05-29T02:53:39;9.53;;;7.00;;
8058;SDS011;4072;42.668;23.396;2023-05-29T02:56:07;7.60;;;6.60;;
8058;SDS011;4072;42.668;23.396;2023-05-29T02:58:35;9.63;;;7.10;;
8058;SDS011;4072;42.668;23.396;2023-05-29T03:01:03;10.77;;;7.07;;
8058;SDS011;4072;42.668;23.396;2023-05-29T03:03:31;7.67;;;6.67;;
8058;SDS011;4072;42.668;23.396;2023-05-29T03:06:00;9.30;;;7.10;;
8058;SDS011;4072;42.668;23.396;2023-05-29T03:08:29;11.90;;;8.00;;
8058;SDS011;4072;42.668;23.396;2023-05-29T03:10:57;10.43;;;7.17;;
8058;SDS011;4072;42.668;23.396;2023-05-29T03:13:25;9.27;;;7.00;;
8058;SDS011;4072;42.668;23.396;2023-05-29T03:15:53;10.77;;;7.90;;
8058;SDS011;4072;42.668;23.396;2023-05-29T03:18:23;8.17;;;7.13;;
8058;SDS011;4072;42.668;23.396;2023-05-29T03:20:51;7.73;;;7.00;;
8058;SDS011;4072;42.668;23.396;2023-05-29T03:23:20;8.27;;;7.47;;
8058;SDS011;4072;42.668;23.396;2023-05-29T03:25:51;10.37;;;8.30;;
8058;SDS011;4072;42.668;23.396;2023-05-29T03:28:19;9.10;;;7.57;;
8058;SDS011;4072;42.668;23.396;2023-05-29T03:30:47;10.43;;;8.03;;
8058;SDS011;4072;42.668;23.396;2023-05-29T03:33:15;12.93;;;8.17;;
8058;SDS011;4072;42.668;23.396;2023-05-29T03:35:43;11.90;;;8.43;;
8058;SDS011;4072;42.668;23.396;2023-05-29T03:38:11;8.57;;;7.67;;
8058;SDS011;4072;42.668;23.396;2023-05-29T03:40:39;10.50;;;7.93;;
8058;SDS011;4072;42.668;23.396;2023-05-29T03:43:09;11.77;;;8.17;;
8058;SDS011;4072;42.668;23.396;2023-05-29T03:45:37;12.33;;;8.07;;
8058;SDS011;4072;42.668;23.396;2023-05-29T03:48:05;9.03;;;7.43;;
8058;SDS011;4072;42.668;23.396;2023-05-29T03:50:33;9.77;;;7.77;;
8058;SDS011;4072;42.668;23.396;2023-05-29T03:53:01;12.90;;;7.80;;
8058;SDS011;4072;42.668;23.396;2023-05-29T03:55:29;8.60;;;7.30;;
8058;SDS011;4072;42.668;23.396;2023-05-29T03:57:59;8.23;;;7.43;;
8058;SDS011;4072;42.668;23.396;2023-05-29T04:00:28;9.90;;;7.83;;
8058;SDS011;4072;42.668;23.396;2023-05-29T04:02:56;10.00;;;7.17;;
8058;SDS011;4072;42.668;23.396;2023-05-29T04:05:24;8.70;;;6.43;;
8058;SDS011;4072;42.668;23.396;2023-05-29T04:07:52;7.77;;;6.27;;
8058;SDS011;4072;42.668;23.396;2023-05-29T04:10:39;8.77;;;6.97;;
8058;SDS011;4072;42.668;23.396;2023-05-29T04:13:07;11.80;;;7.67;;
8058;SDS011;4072;42.668;23.396;2023-05-29T04:15:37;11.60;;;7.07;;
8058;SDS011;4072;42.668;23.396;2023-05-29T04:18:05;8.20;;;6.57;;
8058;SDS011;4072;42.668;23.396;2023-05-29T04:20:33;9.50;;;7.57;;
8058;SDS011;4072;42.668;23.396;2023-05-29T04:23:01;7.57;;;6.77;;
8058;SDS011;4072;42.668;23.396;2023-05-29T04:25:30;11.87;;;7.70;;
8058;SDS011;4072;42.668;23.396;2023-05-29T04:27:58;11.70;;;7.87;;
8058;SDS011;4072;42.668;23.396;2023-05-29T04:30:28;11.17;;;7.50;;
8058;SDS011;4072;42.668;23.396;2023-05-29T04:32:58;10.50;;;7.53;;
8058;SDS011;4072;42.668;23.396;2023-05-29T04:35:26;9.83;;;7.77;;
8058;SDS011;4072;42.668;23.396;2023-05-29T04:37:55;13.70;;;8.93;;
8058;SDS011;4072;42.668;23.396;2023-05-29T04:40:24;9.47;;;8.17;;
8058;SDS011;4072;42.668;23.396;2023-05-29T04:42:53;10.60;;;7.60;;
8058;SDS011;4072;42.668;23.396;2023-05-29T04:45:21;11.87;;;7.50;;
8058;SDS011;4072;42.668;23.396;2023-05-29T04:47:49;11.07;;;7.77;;
8058;SDS011;4072;42.668;23.396;2023-05-29T04:50:21;12.83;;;8.77;;
8058;SDS011;4072;42.668;23.396;2023-05-29T04:52:58;13.60;;;8.43;;
8058;SDS011;4072;42.668;23.396;2023-05-29T04:55:27;12.20;;;7.50;;
8058;SDS011;4072;42.668;23.396;2023-05-29T04:57:56;8.13;;;7.33;;
8058;SDS011;4072;42.668;23.396;2023-05-29T05:00:28;8.47;;;6.53;;
8058;SDS011;4072;42.668;23.396;2023-05-29T05:02:57;7.53;;;6.70;;
8058;SDS011;4072;42.668;23.396;2023-05-29T05:05:26;8.83;;;6.60;;
8058;SDS011;4072;42.668;23.396;2023-05-29T05:07:54;6.97;;;6.20;;
8058;SDS011;4072;42.668;23.396;2023-05-29T05:10:22;9.10;;;8.20;;
8058;SDS011;4072;42.668;23.396;2023-05-29T05:12:50;10.23;;;7.80;;
8058;SDS011;4072;42.668;23.396;2023-05-29T05:15:18;10.20;;;8.37;;
8058;SDS011;4072;42.668;23.396;2023-05-29T05:17:46;10.67;;;7.87;;
8058;SDS011;4072;42.668;23.396;2023-05-29T05:20:14;10.53;;;8.20;;
8058;SDS011;4072;42.668;23.396;2023-05-29T05:22:44;13.27;;;7.33;;
8058;SDS011;4072;42.668;23.396;2023-05-29T05:25:12;9.87;;;6.90;;
8058;SDS011;4072;42.668;23.396;2023-05-29T05:27:40;10.17;;;6.57;;
8058;SDS011;4072;42.668;23.396;2023-05-29T05:30:08;9.10;;;7.37;;
8058;SDS011;4072;42.668;23.396;2023-05-29T05:32:37;10.60;;;7.37;;
8058;SDS011;4072;42.668;23.396;2023-05-29T05:35:05;9.57;;;7.90;;
8058;SDS011;4072;42.668;23.396;2023-05-29T05:37:36;11.67;;;8.57;;
8058;SDS011;4072;42.668;23.396;2023-05-29T05:40:06;13.87;;;9.07;;
8058;SDS011;4072;42.668;23.396;2023-05-29T05:42:35;10.83;;;8.87;;
8058;SDS011;4072;42.668;23.396;2023-05-29T05:45:03;11.83;;;9.33;;
8058;SDS011;4072;42.668;23.396;2023-05-29T05:47:32;10.43;;;9.40;;
8058;SDS011;4072;42.668;23.396;2023-05-29T05:50:01;12.53;;;9.40;;
8058;SDS011;4072;42.668;23.396;2023-05-29T05:52:29;13.90;;;10.10;;
8058;SDS011;4072;42.668;23.396;2023-05-29T05:54:59;12.03;;;9.50;;
8058;SDS011;4072;42.668;23.396;2023-05-29T05:57:28;11.07;;;8.10;;
8058;SDS011;4072;42.668;23.396;2023-05-29T05:59:58;8.80;;;7.87;;
8058;SDS011;4072;42.668;23.396;2023-05-29T06:02:26;10.20;;;7.03;;
8058;SDS011;4072;42.668;23.396;2023-05-29T06:04:54;10.00;;;7.50;;
8058;SDS011;4072;42.668;23.396;2023-05-29T06:07:22;12.87;;;7.37;;
8058;SDS011;4072;42.668;23.396;2023-05-29T06:09:51;6.00;;;5.27;;
8058;SDS011;4072;42.668;23.396;2023-05-29T06:12:19;6.63;;;6.00;;
8058;SDS011;4072;42.668;23.396;2023-05-29T06:14:48;5.83;;;5.23;;
8058;SDS011;4072;42.668;23.396;2023-05-29T06:17:17;15.13;;;5.53;;
8058;SDS011;4072;42.668;23.396;2023-05-29T06:19:48;4.30;;;3.20;;
8058;SDS011;4072;42.668;23.396;2023-05-29T06:22:16;4.20;;;3.67;;
8058;SDS011;4072;42.668;23.396;2023-05-29T06:24:44;9.37;;;5.77;;
8058;SDS011;4072;42.668;23.396;2023-05-29T06:27:12;6.10;;;4.33;;
8058;SDS011;4072;42.668;23.396;2023-05-29T06:29:40;4.77;;;3.77;;
8058;SDS011;4072;42.668;23.396;2023-05-29T06:32:09;3.97;;;3.67;;
8058;SDS011;4072;42.668;23.396;2023-05-29T06:34:38;4.37;;;3.50;;
8058;SDS011;4072;42.668;23.396;2023-05-29T06:37:06;7.87;;;4.30;;
8058;SDS011;4072;42.668;23.396;2023-05-29T06:39:35;5.30;;;4.50;;
8058;SDS011;4072;42.668;23.396;2023-05-29T06:42:03;4.40;;;4.00;;
8058;SDS011;4072;42.668;23.396;2023-05-29T06:44:32;4.33;;;2.93;;
8058;SDS011;4072;42.668;23.396;2023-05-29T06:47:00;5.93;;;3.23;;
8058;SDS011;4072;42.668;23.396;2023-05-29T06:49:29;1.80;;;1.70;;
8058;SDS011;4072;42.668;23.396;2023-05-29T06:51:57;3.90;;;2.17;;
8058;SDS011;4072;42.668;23.396;2023-05-29T06:54:26;3.00;;;1.90;;
8058;SDS011;4072;42.668;23.396;2023-05-29T06:56:54;2.77;;;2.03;;
8058;SDS011;4072;42.668;23.396;2023-05-29T06:59:36;3.03;;;1.80;;
8058;SDS011;4072;42.668;23.396;2023-05-29T07:02:04;3.30;;;2.07;;
8058;SDS011;4072;42.668;23.396;2023-05-29T07:04:33;1.40;;;1.30;;
8058;SDS011;4072;42.668;23.396;2023-05-29T07:07:02;2.27;;;1.90;;
8058;SDS011;4072;42.668;23.396;2023-05-29T07:09:30;3.83;;;2.40;;
8058;SDS011;4072;42.668;23.396;2023-05-29T07:11:58;1.90;;;1.80;;
8058;SDS011;4072;42.668;23.396;2023-05-29T07:14:27;1.40;;;1.30;;
8058;SDS011;4072;42.668;23.396;2023-05-29T07:16:55;2.53;;;1.50;;
8058;SDS011;4072;42.668;23.396;2023-05-29T07:19:23;1.57;;;1.47;;
8058;SDS011;4072;42.668;23.396;2023-05-29T07:21:52;1.80;;;1.70;;
8058;SDS011;4072;42.668;23.396;2023-05-29T07:24:20;3.23;;;2.00;;
8058;SDS011;4072;42.668;23.396;2023-05-29T07:26:48;3.07;;;2.00;;
8058;SDS011;4072;42.668;23.396;2023-05-29T07:29:16;3.90;;;2.97;;
8058;SDS011;4072;42.668;23.396;2023-05-29T07:31:44;4.37;;;3.00;;
8058;SDS011;4072;42.668;23.396;2023-05-29T07:34:12;3.47;;;2.60;;
8058;SDS011;4072;42.668;23.396;2023-05-29T07:39:34;2.83;;;2.17;;
8058;SDS011;4072;42.668;23.396;2023-05-29T07:42:03;2.33;;;2.13;;
8058;SDS011;4072;42.668;23.396;2023-05-29T07:44:33;2.60;;;2.20;;
8058;SDS011;4072;42.668;23.396;2023-05-29T07:47:01;3.67;;;2.67;;
8058;SDS011;4072;42.668;23.396;2023-05-29T07:49:29;2.30;;;2.03;;
8058;SDS011;4072;42.668;23.396;2023-05-29T07:51:58;2.37;;;2.00;;
8058;SDS011;4072;42.668;23.396;2023-05-29T07:54:26;2.03;;;1.83;;
8058;SDS011;4072;42.668;23.396;2023-05-29T07:56:56;1.70;;;1.60;;
8058;SDS011;4072;42.668;23.396;2023-05-29T07:59:24;2.50;;;2.30;;
8058;SDS011;4072;42.668;23.396;2023-05-29T08:01:52;5.17;;;2.13;;
8058;SDS011;4072;42.668;23.396;2023-05-29T08:04:20;2.53;;;1.90;;
8058;SDS011;4072;42.668;23.396;2023-05-29T08:06:49;3.90;;;2.13;;
8058;SDS011;4072;42.668;23.396;2023-05-29T08:09:17;2.77;;;2.47;;
8058;SDS011;4072;42.668;23.396;2023-05-29T08:11:46;3.73;;;2.67;;
8058;SDS011;4072;42.668;23.396;2023-05-29T08:14:15;2.87;;;2.43;;
8058;SDS011;4072;42.668;23.396;2023-05-29T08:16:44;2.97;;;2.40;;
8058;SDS011;4072;42.668;23.396;2023-05-29T08:19:12;2.17;;;1.97;;
8058;SDS011;4072;42.668;23.396;2023-05-29T08:21:41;3.10;;;2.17;;
8058;SDS011;4072;42.668;23.396;2023-05-29T08:24:09;1.93;;;1.73;;
8058;SDS011;4072;42.668;23.396;2023-05-29T08:26:37;3.93;;;2.53;;
8058;SDS011;4072;42.668;23.396;2023-05-29T08:29:06;2.67;;;2.30;;
8058;SDS011;4072;42.668;23.396;2023-05-29T08:31:36;2.20;;;2.00;;
8058;SDS011;4072;42.668;23.396;2023-05-29T08:34:04;3.10;;;2.37;;
8058;SDS011;4072;42.668;23.396;2023-05-29T08:36:33;4.80;;;3.80;;
8058;SDS011;4072;42.668;23.396;2023-05-29T08:39:01;4.93;;;4.10;;
8058;SDS011;4072;42.668;23.396;2023-05-29T08:41:32;3.30;;;2.73;;
8058;SDS011;4072;42.668;23.396;2023-05-29T08:44:10;3.27;;;2.47;;
8058;SDS011;4072;42.668;23.396;2023-05-29T08:46:43;2.50;;;2.30;;
8058;SDS011;4072;42.668;23.396;2023-05-29T08:49:13;2.17;;;1.97;;
8058;SDS011;4072;42.668;23.396;2023-05-29T08:51:49;2.07;;;1.90;;
8058;SDS011;4072;42.668;23.396;2023-05-29T08:54:24;2.67;;;2.03;;
8058;SDS011;4072;42.668;23.396;2023-05-29T08:56:53;5.07;;;2.80;;
8058;SDS011;4072;42.668;23.396;2023-05-29T08:59:22;3.50;;;2.20;;
8058;SDS011;4072;42.668;23.396;2023-05-29T09:01:52;2.73;;;2.00;;
8058;SDS011;4072;42.668;23.396;2023-05-29T09:04:20;2.50;;;2.30;;
8058;SDS011;4072;42.668;23.396;2023-05-29T09:06:49;3.33;;;2.27;;
8058;SDS011;4072;42.668;23.396;2023-05-29T09:09:19;3.33;;;2.33;;
8058;SDS011;4072;42.668;23.396;2023-05-29T09:11:49;2.30;;;2.10;;
8058;SDS011;4072;42.668;23.396;2023-05-29T09:14:34;3.72;;;2.17;;
8058;SDS011;4072;42.668;23.396;2023-05-29T09:17:05;3.35;;;2.78;;
8058;SDS011;4072;42.668;23.396;2023-05-29T09:19:34;4.13;;;3.20;;
8058;SDS011;4072;42.668;23.396;2023-05-29T09:22:05;5.95;;;3.80;;
8058;SDS011;4072;42.668;23.396;2023-05-29T09:24:34;3.30;;;2.43;;
8058;SDS011;4072;42.668;23.396;2023-05-29T09:27:04;2.40;;;2.20;;
8058;SDS011;4072;42.668;23.396;2023-05-29T09:29:37;3.60;;;2.70;;
8058;SDS011;4072;42.668;23.396;2023-05-29T09:32:08;3.10;;;2.70;;
8058;SDS011;4072;42.668;23.396;2023-05-29T09:34:36;3.07;;;2.77;;
8058;SDS011;4072;42.668;23.396;2023-05-29T09:37:06;3.33;;;2.23;;
8058;SDS011;4072;42.668;23.396;2023-05-29T09:39:45;4.80;;;2.83;;
8058;SDS011;4072;42.668;23.396;2023-05-29T09:42:14;2.70;;;2.50;;
8058;SDS011;4072;42.668;23.396;2023-05-29T09:44:44;3.15;;;2.70;;
8058;SDS011;4072;42.668;23.396;2023-05-29T09:47:16;2.87;;;2.57;;
8058;SDS011;4072;42.668;23.396;2023-05-29T09:49:45;5.47;;;3.87;;
8058;SDS011;4072;42.668;23.396;2023-05-29T09:52:14;5.50;;;3.43;;
8058;SDS011;4072;42.668;23.396;2023-05-29T09:54:43;3.40;;;2.67;;
8058;SDS011;4072;42.668;23.396;2023-05-29T09:57:13;2.60;;;2.27;;
8058;SDS011;4072;42.668;23.396;2023-05-29T09:59:43;3.77;;;2.57;;
8058;SDS011;4072;42.668;23.396;2023-05-29T10:02:13;3.77;;;3.43;;
8058;SDS011;4072;42.668;23.396;2023-05-29T10:04:43;3.35;;;2.65;;
8058;SDS011;4072;42.668;23.396;2023-05-29T10:07:12;2.67;;;2.47;;
8058;SDS011;4072;42.668;23.396;2023-05-29T10:09:47;3.37;;;2.90;;
8058;SDS011;4072;42.668;23.396;2023-05-29T10:12:20;3.93;;;2.73;;
8058;SDS011;4072;42.668;23.396;2023-05-29T10:14:49;2.60;;;2.37;;
8058;SDS011;4072;42.668;23.396;2023-05-29T10:17:25;2.57;;;2.37;;
8058;SDS011;4072;42.668;23.396;2023-05-29T10:19:56;3.33;;;2.50;;
8058;SDS011;4072;42.668;23.396;2023-05-29T10:22:26;2.90;;;2.60;;
8058;SDS011;4072;42.668;23.396;2023-05-29T10:24:56;2.50;;;2.23;;
8058;SDS011;4072;42.668;23.396;2023-05-29T10:27:26;5.27;;;3.30;;
8058;SDS011;4072;42.668;23.396;2023-05-29T10:29:55;6.23;;;3.13;;
8058;SDS011;4072;42.668;23.396;2023-05-29T10:32:36;5.30;;;3.43;;
8058;SDS011;4072;42.668;23.396;2023-05-29T10:35:14;7.67;;;2.80;;
8058;SDS011;4072;42.668;23.396;2023-05-29T10:37:51;3.00;;;2.80;;
8058;SDS011;4072;42.668;23.396;2023-05-29T10:40:24;2.80;;;2.60;;
8058;SDS011;4072;42.668;23.396;2023-05-29T10:42:54;5.87;;;2.47;;
8058;SDS011;4072;42.668;23.396;2023-05-29T10:48:38;3.10;;;2.73;;
8058;SDS011;4072;42.668;23.396;2023-05-29T10:51:08;4.07;;;3.00;;
8058;SDS011;4072;42.668;23.396;2023-05-29T10:53:52;2.93;;;2.40;;
8058;SDS011;4072;42.668;23.396;2023-05-29T10:56:21;4.57;;;2.20;;
8058;SDS011;4072;42.668;23.396;2023-05-29T10:58:52;3.53;;;2.80;;
8058;SDS011;4072;42.668;23.396;2023-05-29T11:01:24;4.00;;;2.97;;
8058;SDS011;4072;42.668;23.396;2023-05-29T11:06:57;5.95;;;2.75;;
8058;SDS011;4072;42.668;23.396;2023-05-29T11:09:26;4.18;;;3.22;;
8058;SDS011;4072;42.668;23.396;2023-05-29T11:12:11;6.00;;;2.88;;
8058;SDS011;4072;42.668;23.396;2023-05-29T11:14:44;2.83;;;2.63;;
8058;SDS011;4072;42.668;23.396;2023-05-29T11:17:29;4.45;;;2.65;;
8058;SDS011;4072;42.668;23.396;2023-05-29T11:20:16;4.88;;;3.00;;
8058;SDS011;4072;42.668;23.396;2023-05-29T11:23:00;3.65;;;2.90;;
8058;SDS011;4072;42.668;23.396;2023-05-29T11:25:32;3.97;;;3.15;;
8058;SDS011;4072;42.668;23.396;2023-05-29T11:28:02;5.35;;;3.47;;
8058;SDS011;4072;42.668;23.396;2023-05-29T11:30:45;3.92;;;2.63;;
8058;SDS011;4072;42.668;23.396;2023-05-29T11:33:19;3.00;;;2.70;;
8058;SDS011;4072;42.668;23.396;2023-05-29T11:35:57;3.67;;;3.38;;
8058;SDS011;4072;42.668;23.396;2023-05-29T11:38:27;3.05;;;2.75;;
8058;SDS011;4072;42.668;23.396;2023-05-29T11:40:57;3.15;;;2.75;;
8058;SDS011;4072;42.668;23.396;2023-05-29T11:43:26;3.45;;;3.05;;
8058;SDS011;4072;42.668;23.396;2023-05-29T11:45:54;4.00;;;3.30;;
8058;SDS011;4072;42.668;23.396;2023-05-29T11:48:23;6.30;;;3.50;;
8058;SDS011;4072;42.668;23.396;2023-05-29T11:50:52;9.13;;;3.90;;
8058;SDS011;4072;42.668;23.396;2023-05-29T11:53:22;6.30;;;4.40;;
8058;SDS011;4072;42.668;23.396;2023-05-29T11:55:50;4.17;;;3.37;;
8058;SDS011;4072;42.668;23.396;2023-05-29T11:58:18;5.73;;;3.87;;
8058;SDS011;4072;42.668;23.396;2023-05-29T12:00:48;5.83;;;3.97;;
8058;SDS011;4072;42.668;23.396;2023-05-29T12:03:17;3.77;;;3.30;;
8058;SDS011;4072;42.668;23.396;2023-05-29T12:05:47;4.63;;;3.43;;
8058;SDS011;4072;42.668;23.396;2023-05-29T12:08:22;7.87;;;2.70;;
8058;SDS011;4072;42.668;23.396;2023-05-29T12:10:52;4.17;;;3.50;;
8058;SDS011;4072;42.668;23.396;2023-05-29T12:13:21;4.67;;;3.13;;
8058;SDS011;4072;42.668;23.396;2023-05-29T12:15:51;4.43;;;3.43;;
8058;SDS011;4072;42.668;23.396;2023-05-29T12:18:22;3.23;;;3.00;;
8058;SDS011;4072;42.668;23.396;2023-05-29T12:20:51;4.47;;;2.60;;
8058;SDS011;4072;42.668;23.396;2023-05-29T12:23:27;4.43;;;3.83;;
8058;SDS011;4072;42.668;23.396;2023-05-29T12:25:55;6.13;;;3.53;;
8058;SDS011;4072;42.668;23.396;2023-05-29T12:28:23;4.53;;;2.07;;
8058;SDS011;4072;42.668;23.396;2023-05-29T12:30:57;4.77;;;3.00;;
8058;SDS011;4072;42.668;23.396;2023-05-29T12:33:28;6.63;;;2.83;;
8058;SDS011;4072;42.668;23.396;2023-05-29T12:36:02;3.60;;;2.97;;
8058;SDS011;4072;42.668;23.396;2023-05-29T12:38:41;5.60;;;3.13;;
8058;SDS011;4072;42.668;23.396;2023-05-29T12:41:27;7.60;;;4.37;;
8058;SDS011;4072;42.668;23.396;2023-05-29T12:43:57;3.90;;;3.27;;
8058;SDS011;4072;42.668;23.396;2023-05-29T12:46:25;7.33;;;3.77;;
8058;SDS011;4072;42.668;23.396;2023-05-29T12:48:55;5.70;;;3.97;;
8058;SDS011;4072;42.668;23.396;2023-05-29T12:51:24;4.33;;;3.90;;
8058;SDS011;4072;42.668;23.396;2023-05-29T12:53:53;7.17;;;3.87;;
8058;SDS011;4072;42.668;23.396;2023-05-29T12:56:24;6.73;;;3.30;;
8058;SDS011;4072;42.668;23.396;2023-05-29T12:58:54;10.77;;;3.87;;
8058;SDS011;4072;42.668;23.396;2023-05-29T13:01:22;3.97;;;3.30;;
8058;SDS011;4072;42.668;23.396;2023-05-29T13:03:52;5.40;;;3.27;;
8058;SDS011;4072;42.668;23.396;2023-05-29T13:06:20;4.77;;;3.10;;
8058;SDS011;4072;42.668;23.396;2023-05-29T13:08:48;5.33;;;3.53;;
8058;SDS011;4072;42.668;23.396;2023-05-29T13:11:18;3.70;;;3.40;;
8058;SDS011;4072;42.668;23.396;2023-05-29T13:13:48;3.33;;;3.03;;
8058;SDS011;4072;42.668;23.396;2023-05-29T13:16:16;9.87;;;7.53;;
8058;SDS011;4072;42.668;23.396;2023-05-29T13:18:45;4.23;;;3.83;;
8058;SDS011;4072;42.668;23.396;2023-05-29T13:21:13;3.30;;;3.00;;
8058;SDS011;4072;42.668;23.396;2023-05-29T13:23:42;4.33;;;3.93;;
8058;SDS011;4072;42.668;23.396;2023-05-29T13:26:10;6.83;;;5.43;;
8058;SDS011;4072;42.668;23.396;2023-05-29T13:28:40;4.23;;;3.83;;
8058;SDS011;4072;42.668;23.396;2023-05-29T13:31:08;4.47;;;3.40;;
8058;SDS011;4072;42.668;23.396;2023-05-29T13:33:38;3.87;;;3.47;;
8058;SDS011;4072;42.668;23.396;2023-05-29T13:36:08;3.90;;;3.53;;
8058;SDS011;4072;42.668;23.396;2023-05-29T13:38:37;4.20;;;3.50;;
8058;SDS011;4072;42.668;23.396;2023-05-29T13:41:05;4.90;;;3.70;;
8058;SDS011;4072;42.668;23.396;2023-05-29T13:43:34;2.30;;;2.10;;
8058;SDS011;4072;42.668;23.396;2023-05-29T13:46:12;4.60;;;2.87;;
8058;SDS011;4072;42.668;23.396;2023-05-29T13:48:40;2.60;;;2.40;;
8058;SDS011;4072;42.668;23.396;2023-05-29T13:51:13;2.53;;;1.87;;
8058;SDS011;4072;42.668;23.396;2023-05-29T13:53:43;1.60;;;1.50;;
8058;SDS011;4072;42.668;23.396;2023-05-29T13:56:12;2.03;;;1.63;;
8058;SDS011;4072;42.668;23.396;2023-05-29T13:58:40;2.87;;;2.57;;
8058;SDS011;4072;42.668;23.396;2023-05-29T14:01:08;4.23;;;1.93;;
8058;SDS011;4072;42.668;23.396;2023-05-29T14:03:38;1.90;;;1.60;;
8058;SDS011;4072;42.668;23.396;2023-05-29T14:06:09;1.70;;;1.40;;
8058;SDS011;4072;42.668;23.396;2023-05-29T14:08:38;3.30;;;1.30;;
8058;SDS011;4072;42.668;23.396;2023-05-29T14:11:07;2.63;;;1.40;;
8058;SDS011;4072;42.668;23.396;2023-05-29T14:13:36;1.57;;;1.27;;
8058;SDS011;4072;42.668;23.396;2023-05-29T14:16:04;4.87;;;1.73;;
8058;SDS011;4072;42.668;23.396;2023-05-29T14:18:33;3.10;;;1.30;;
8058;SDS011;4072;42.668;23.396;2023-05-29T14:21:03;1.57;;;1.33;;
8058;SDS011;4072;42.668;23.396;2023-05-29T14:23:31;1.30;;;1.20;;
8058;SDS011;4072;42.668;23.396;2023-05-29T14:26:00;1.97;;;1.30;;
8058;SDS011;4072;42.668;23.396;2023-05-29T14:28:29;1.57;;;1.27;;
8058;SDS011;4072;42.668;23.396;2023-05-29T14:30:57;3.57;;;2.00;;
8058;SDS011;4072;42.668;23.396;2023-05-29T14:33:25;2.40;;;1.60;;
8058;SDS011;4072;42.668;23.396;2023-05-29T14:35:54;1.23;;;1.13;;
8058;SDS011;4072;42.668;23.396;2023-05-29T14:38:24;3.47;;;1.53;;
8058;SDS011;4072;42.668;23.396;2023-05-29T14:40:52;3.13;;;1.63;;
8058;SDS011;4072;42.668;23.396;2023-05-29T14:43:34;2.97;;;1.60;;
8058;SDS011;4072;42.668;23.396;2023-05-29T14:46:03;2.83;;;1.90;;
8058;SDS011;4072;42.668;23.396;2023-05-29T14:48:31;1.90;;;1.73;;
8058;SDS011;4072;42.668;23.396;2023-05-29T14:51:00;3.67;;;2.00;;
8058;SDS011;4072;42.668;23.396;2023-05-29T14:53:30;1.83;;;1.73;;
8058;SDS011;4072;42.668;23.396;2023-05-29T14:55:59;4.27;;;2.13;;
8058;SDS011;4072;42.668;23.396;2023-05-29T14:58:27;2.20;;;2.00;;
8058;SDS011;4072;42.668;23.396;2023-05-29T15:00:55;2.17;;;1.93;;
8058;SDS011;4072;42.668;23.396;2023-05-29T15:03:24;2.00;;;1.90;;
8058;SDS011;4072;42.668;23.396;2023-05-29T15:05:53;2.20;;;2.03;;
8058;SDS011;4072;42.668;23.396;2023-05-29T15:08:22;2.50;;;2.30;;
8058;SDS011;4072;42.668;23.396;2023-05-29T15:10:51;2.60;;;2.30;;
8058;SDS011;4072;42.668;23.396;2023-05-29T15:13:20;3.93;;;2.30;;
8058;SDS011;4072;42.668;23.396;2023-05-29T15:15:50;2.63;;;2.43;;
8058;SDS011;4072;42.668;23.396;2023-05-29T15:18:18;2.90;;;2.43;;
8058;SDS011;4072;42.668;23.396;2023-05-29T15:20:47;3.27;;;2.30;;
8058;SDS011;4072;42.668;23.396;2023-05-29T15:23:16;3.27;;;2.47;;
8058;SDS011;4072;42.668;23.396;2023-05-29T15:25:46;3.07;;;2.40;;
8058;SDS011;4072;42.668;23.396;2023-05-29T15:28:15;2.47;;;2.27;;